Time;durP1;ratioP1;P1;durP2;ratioP2;P2;SDS_P1;SDS_P2;PMS_P1;PMS_P2;Temp;Humidity;BMP_temperature;BMP_pressure;BME280_temperature;BME280_humidity;BME280_pressure;Samples;Min_cycle;Max_cycle;Signal;HPM_P1;HPM_P2
2022/08/11 00:01:13;;;;;;;;;;;;;;;25.37;44.26;98416.50;4982362;28;19940;-83
2022/08/11 00:03:46;;;;;;;;;;;;;;;25.27;44.35;98406.06;4996446;28;20031;-85
2022/08/11 00:06:13;;;;;;;;;;;;;;;25.31;44.43;98409.69;4996978;28;19926;-83
2022/08/11 00:08:41;;;;;;;;;;;;;;;25.28;44.58;98406.84;4988333;28;19936;-83
2022/08/11 00:11:08;;;;;;;;;;;;;;;25.27;44.68;98408.78;4987149;28;19933;-86
2022/08/11 00:13:36;;;;;;;;;;;;;;;25.29;44.71;98408.41;4979452;28;19969;-84
2022/08/11 00:16:03;;;;;;;;;;;;;;;25.27;44.68;98406.06;4989855;28;20380;-84
2022/08/11 00:18:30;;;;;;;;;;;;;;;25.25;44.95;98411.09;4991057;28;20043;-84
2022/08/11 00:21:00;;;;;;;;;;;;;;;25.21;44.89;98404.72;4998256;28;19968;-84
2022/08/11 00:23:27;;;;;;;;;;;;;;;25.22;45.16;98409.03;4985144;28;19926;-84
2022/08/11 00:25:54;;;;;;;;;;;;;;;25.24;44.97;98407.53;4992198;28;20030;-84
2022/08/11 00:28:24;;;;;;;;;;;;;;;25.23;45.23;98413.34;4983673;28;20020;-84
2022/08/11 00:30:51;;;;;;;;;;;;;;;25.20;45.18;98411.31;4994485;28;20004;-84
2022/08/11 00:33:19;;;;;;;;;;;;;;;25.18;45.37;98416.34;4996091;28;19933;-84
2022/08/11 00:35:46;;;;;;;;;;;;;;;25.26;45.10;98415.38;4983260;28;19926;-84
2022/08/11 00:38:14;;;;;;;;;;;;;;;25.13;45.52;98413.81;4995475;28;20400;-84
2022/08/11 00:40:44;;;;;;;;;;;;;;;25.10;45.35;98422.72;5002892;28;20413;-84
2022/08/11 00:43:15;;;;;;;;;;;;;;;25.17;45.48;98417.47;4996840;28;20410;-84
2022/08/11 00:45:43;;;;;;;;;;;;;;;25.13;45.45;98422.03;4999792;28;20561;-83
2022/08/11 00:48:14;;;;;;;;;;;;;;;25.09;45.52;98426.59;4993087;28;20020;-84
2022/08/11 00:50:46;;;;;;;;;;;;;;;25.09;45.59;98423.88;5001283;28;20639;-84
2022/08/11 00:53:30;;;;;;;;;;;;;;;25.10;45.65;98426.25;5003738;28;20495;-83
2022/08/11 00:56:14;;;;;;;;;;;;;;;25.08;45.78;98430.47;4996873;28;19932;-83
2022/08/11 00:59:00;;;;;;;;;;;;;;;25.11;45.71;98419.66;4982399;28;20388;-84
2022/08/11 01:01:30;;;;;;;;;;;;;;;25.00;45.97;98426.75;5000383;28;19929;-84
2022/08/11 01:04:09;;;;;;;;;;;;;;;25.01;45.94;98424.78;4998867;28;19974;-84
2022/08/11 01:06:48;;;;;;;;;;;;;;;24.96;46.21;98416.84;4987228;28;20028;-88
2022/08/11 01:09:30;;;;;;;;;;;;;;;25.00;46.27;98417.75;4998273;28;19950;-86
2022/08/11 01:12:15;;;;;;;;;;;;;;;24.96;46.35;98411.38;5004792;28;19973;-87
2022/08/11 01:14:59;;;;;;;;;;;;;;;24.96;46.43;98414.09;5003887;28;19936;-84
2022/08/11 01:17:58;;;;;;;;;;;;;;;24.85;46.68;98410.25;4993633;28;20080;-85
2022/08/11 01:20:45;;;;;;;;;;;;;;;24.77;46.69;98414.66;4946841;28;20497;-84
2022/08/11 01:23:30;;;;;;;;;;;;;;;24.86;46.62;98409.09;4962635;28;20014;-84
2022/08/11 01:26:14;;;;;;;;;;;;;;;24.83;46.34;98409.78;4979737;28;19926;-84
2022/08/11 01:28:56;;;;;;;;;;;;;;;24.81;46.69;98404.69;4991064;28;19933;-84
2022/08/11 01:31:43;;;;;;;;;;;;;;;24.79;46.85;98408.88;4996176;28;19972;-84
2022/08/11 01:34:28;;;;;;;;;;;;;;;24.73;46.71;98411.03;4994214;28;20031;-85
2022/08/11 01:37:02;;;;;;;;;;;;;;;24.72;46.98;98412.19;5000835;28;20580;-84
2022/08/11 01:39:55;;;;;;;;;;;;;;;24.68;47.03;98414.81;4999991;28;20388;-84
2022/08/11 01:45:29;;;;;;;;;;;;;;;24.71;47.22;98410.59;4976180;28;19929;-83
2022/08/11 01:47:59;;;;;;;;;;;;;;;24.64;47.27;98399.44;4993176;28;19929;-84
2022/08/11 01:50:40;;;;;;;;;;;;;;;24.62;47.57;98402.53;4989106;28;19933;-83
2022/08/11 01:53:18;;;;;;;;;;;;;;;24.64;47.44;98404.88;4994462;28;19929;-84
2022/08/11 01:55:50;;;;;;;;;;;;;;;24.63;47.50;98408.78;4992440;28;19932;-84
2022/08/11 01:58:23;;;;;;;;;;;;;;;24.61;47.46;98400.91;4996527;28;19936;-83
2022/08/11 02:00:52;;;;;;;;;;;;;;;24.60;47.53;98393.84;4994495;28;19925;-84
2022/08/11 02:03:24;;;;;;;;;;;;;;;24.53;47.71;98396.38;4995415;28;20043;-84
2022/08/11 02:05:59;;;;;;;;;;;;;;;24.53;47.88;98401.84;4997649;28;20005;-84
2022/08/11 02:08:34;;;;;;;;;;;;;;;24.45;47.95;98394.53;4988589;28;19980;-84
2022/08/11 02:13:52;;;;;;;;;;;;;;;24.48;48.07;98391.13;5003714;28;20432;-84
2022/08/11 02:16:27;;;;;;;;;;;;;;;24.37;47.98;98397.41;5007757;28;19936;-86
2022/08/11 02:24:41;;;;;;;;;;;;;;;24.32;48.31;98397.63;4998220;28;19929;-84
2022/08/11 02:27:09;;;;;;;;;;;;;;;24.26;48.57;98394.34;4998089;28;19956;-85
2022/08/11 02:29:43;;;;;;;;;;;;;;;24.28;48.53;98389.31;4999953;28;19932;-84
2022/08/11 02:35:01;;;;;;;;;;;;;;;24.29;48.39;98385.47;5002069;28;19929;-85
2022/08/11 02:37:34;;;;;;;;;;;;;;;24.22;48.56;98381.69;4994116;28;20044;-83
2022/08/11 02:40:10;;;;;;;;;;;;;;;24.19;48.48;98377.72;4987473;28;19929;-85
2022/08/11 02:42:40;;;;;;;;;;;;;;;24.17;48.36;98379.97;4989117;28;20333;-84
2022/08/11 02:45:24;;;;;;;;;;;;;;;24.15;48.31;98379.53;5002681;28;20607;-86
2022/08/11 02:50:56;;;;;;;;;;;;;;;24.08;48.60;98380.06;5001754;28;20012;-83
2022/08/11 02:53:28;;;;;;;;;;;;;;;24.02;48.58;98383.34;4994474;28;19930;-84
2022/08/11 02:56:00;;;;;;;;;;;;;;;24.05;48.50;98379.94;5004665;28;19979;-84
2022/08/11 02:58:34;;;;;;;;;;;;;;;24.03;48.49;98374.84;5000799;28;20017;-84
2022/08/11 03:01:10;;;;;;;;;;;;;;;24.00;48.58;98371.97;5005131;28;19939;-84
2022/08/11 03:03:43;;;;;;;;;;;;;;;24.00;48.46;98364.59;5004871;28;20451;-84
2022/08/11 03:06:12;;;;;;;;;;;;;;;24.00;48.46;98375.50;5004860;28;19929;-84
2022/08/11 03:08:50;;;;;;;;;;;;;;;23.96;48.64;98373.78;5008951;28;19937;-84
2022/08/11 03:16:56;;;;;;;;;;;;;;;23.83;48.60;98370.25;4975381;28;20356;-84
2022/08/11 03:19:26;;;;;;;;;;;;;;;23.88;48.70;98371.97;5007380;28;19983;-84
2022/08/11 03:21:59;;;;;;;;;;;;;;;23.77;48.84;98371.59;4984895;28;19929;-83
2022/08/11 03:24:29;;;;;;;;;;;;;;;23.77;48.72;98374.31;5008575;28;19925;-83
2022/08/11 03:27:02;;;;;;;;;;;;;;;23.82;48.87;98376.06;4988212;28;20311;-85
2022/08/11 03:29:32;;;;;;;;;;;;;;;23.69;48.89;98385.31;5007858;28;19925;-84
2022/08/11 03:32:04;;;;;;;;;;;;;;;23.24;49.89;98390.72;5007275;28;19937;-84
2022/08/11 03:34:34;;;;;;;;;;;;;;;23.24;49.99;98377.88;5008092;28;20439;-84
2022/08/11 03:37:47;;;;;;;;;;;;;;;23.26;49.97;98381.06;5007077;28;19944;-84
2022/08/11 03:40:07;;;;;;;;;;;;;;;22.76;50.82;98388.50;5009497;28;19933;-84
2022/08/11 03:42:41;;;;;;;;;;;;;;;22.59;51.21;98392.88;5000979;28;19989;-83
2022/08/11 03:45:16;;;;;;;;;;;;;;;22.72;51.17;98387.56;5006339;28;20020;-83
2022/08/11 03:47:57;;;;;;;;;;;;;;;23.06;50.38;98379.13;4990340;28;20029;-84
2022/08/11 03:50:32;;;;;;;;;;;;;;;23.03;50.14;98383.34;4998035;28;19929;-84
2022/08/11 03:53:06;;;;;;;;;;;;;;;23.15;49.82;98388.03;5010252;28;19929;-85
2022/08/11 03:55:40;;;;;;;;;;;;;;;23.27;50.02;98379.16;5007803;28;20029;-84
2022/08/11 03:58:24;;;;;;;;;;;;;;;23.36;49.85;98388.03;5006439;28;20028;-84
2022/08/11 04:01:05;;;;;;;;;;;;;;;23.24;50.29;98380.59;4984689;28;20380;-85
2022/08/11 04:03:50;;;;;;;;;;;;;;;23.25;50.36;98381.38;5001608;28;19944;-84
2022/08/11 04:06:31;;;;;;;;;;;;;;;23.29;50.29;98383.13;5001980;28;19930;-85
2022/08/11 04:09:15;;;;;;;;;;;;;;;23.31;49.94;98386.31;5004421;28;20020;-85
2022/08/11 04:12:00;;;;;;;;;;;;;;;23.31;50.04;98382.78;4987754;28;19940;-85
2022/08/11 04:17:37;;;;;;;;;;;;;;;23.21;50.50;98386.69;4996687;28;19975;-84
2022/08/11 04:20:18;;;;;;;;;;;;;;;23.18;50.62;98381.16;4996320;28;19930;-84
2022/08/11 04:22:54;;;;;;;;;;;;;;;23.22;50.32;98382.06;5010962;28;19925;-84
2022/08/11 04:25:29;;;;;;;;;;;;;;;23.22;50.44;98382.06;4997660;28;19929;-84
2022/08/11 04:28:13;;;;;;;;;;;;;;;23.20;50.50;98382.41;5002955;28;19949;-84
2022/08/11 04:30:51;;;;;;;;;;;;;;;23.18;50.48;98387.38;5007293;28;20024;-85
2022/08/11 04:33:33;;;;;;;;;;;;;;;23.18;50.40;98378.44;4992775;28;19936;-86
2022/08/11 04:36:09;;;;;;;;;;;;;;;23.18;50.47;98381.91;5008232;28;19929;-86
2022/08/11 04:38:45;;;;;;;;;;;;;;;23.12;50.62;98383.25;5001907;28;19929;-84
2022/08/11 04:41:25;;;;;;;;;;;;;;;23.10;50.84;98386.31;4986369;28;19933;-86
2022/08/11 04:44:23;;;;;;;;;;;;;;;23.18;50.62;98384.66;4984201;28;19936;-84
2022/08/11 04:46:58;;;;;;;;;;;;;;;23.20;50.54;98387.84;4987519;28;19930;-85
2022/08/11 05:07:01;;;;;;;;;;;;;;;23.21;50.14;98407.72;5003472;28;19925;-86
2022/08/11 05:09:38;;;;;;;;;;;;;;;23.26;49.66;98404.78;5006675;28;19926;-85
2022/08/11 05:12:10;;;;;;;;;;;;;;;23.13;50.88;98412.91;5003658;28;19929;-85
2022/08/11 05:37:12;;;;;;;;;;;;;;;21.77;57.05;98406.19;4962947;28;19941;-85
2022/08/11 05:56:19;;;;;;;;;;;;;;;21.75;63.81;98406.53;4996783;28;19936;-84
2022/08/11 05:58:48;;;;;;;;;;;;;;;22.11;62.07;98403.38;4988674;28;19929;-83
2022/08/11 06:01:21;;;;;;;;;;;;;;;22.44;60.44;98396.19;5002440;28;20036;-84
2022/08/11 06:06:33;;;;;;;;;;;;;;;22.80;58.22;98403.88;4983604;28;19937;-84
2022/08/11 06:09:01;;;;;;;;;;;;;;;23.14;56.89;98402.81;4992976;28;19925;-84
2022/08/11 06:11:28;;;;;;;;;;;;;;;23.45;54.74;98397.75;4994668;28;20028;-84
2022/08/11 06:13:55;;;;;;;;;;;;;;;23.52;54.83;98395.28;4996424;28;20040;-85
2022/08/11 06:16:23;;;;;;;;;;;;;;;23.71;54.55;98399.41;4996438;28;19925;-85
2022/08/11 06:18:50;;;;;;;;;;;;;;;23.67;54.03;98400.09;5003336;28;20014;-85
2022/08/11 06:21:17;;;;;;;;;;;;;;;23.90;53.92;98402.41;5001971;28;19925;-84
2022/08/11 06:23:44;;;;;;;;;;;;;;;24.01;53.53;98401.66;5010859;28;20016;-85
2022/08/11 06:26:13;;;;;;;;;;;;;;;24.02;53.53;98400.50;4999834;28;19925;-86
2022/08/11 06:28:43;;;;;;;;;;;;;;;24.06;53.13;98401.44;4994220;28;19925;-84
2022/08/11 06:31:14;;;;;;;;;;;;;;;24.11;52.72;98400.44;4972646;28;19991;-84
2022/08/11 06:33:50;;;;;;;;;;;;;;;24.17;51.91;98396.34;4986098;28;20477;-83
2022/08/11 06:36:23;;;;;;;;;;;;;;;24.32;51.43;98400.38;4989480;28;19930;-85
2022/08/11 06:38:56;;;;;;;;;;;;;;;24.31;51.28;98402.28;4991842;28;20024;-85
2022/08/11 06:41:33;;;;;;;;;;;;;;;24.36;51.17;98398.53;4995479;28;19969;-84
2022/08/11 06:44:05;;;;;;;;;;;;;;;24.28;51.13;98400.25;4968288;28;19925;-84
2022/08/11 06:46:32;;;;;;;;;;;;;;;24.30;51.16;98399.88;4982156;28;19926;-86
2022/08/11 06:49:01;;;;;;;;;;;;;;;24.24;51.14;98395.78;4982882;28;19926;-84
2022/08/11 06:51:26;;;;;;;;;;;;;;;24.45;51.05;98402.75;4992086;28;19937;-84
2022/08/11 06:53:55;;;;;;;;;;;;;;;24.53;50.91;98399.13;4998051;28;20160;-85
2022/08/11 07:02:04;;;;;;;;;;;;;;;24.60;50.27;98388.38;4990859;28;20467;-84
2022/08/11 07:04:32;;;;;;;;;;;;;;;24.38;50.86;98394.34;4992094;28;19976;-85
2022/08/11 07:15:55;;;;;;;;;;;;;;;24.90;48.55;98382.69;4962522;28;20388;-85
2022/08/11 07:29:46;;;;;;;;;;;;;;;24.97;47.41;98382.91;4976684;28;19977;-84
2022/08/11 07:32:15;;;;;;;;;;;;;;;24.86;47.48;98384.53;4990583;28;19941;-83
2022/08/11 07:34:48;;;;;;;;;;;;;;;24.83;47.89;98390.66;4985471;28;19938;-83
2022/08/11 07:37:18;;;;;;;;;;;;;;;24.87;47.56;98388.84;4988769;28;19934;-84
2022/08/11 07:39:46;;;;;;;;;;;;;;;24.80;47.25;98383.13;4993007;28;20017;-84
2022/08/11 07:42:13;;;;;;;;;;;;;;;24.82;46.87;98392.59;4989533;28;19925;-83
2022/08/11 07:52:52;;;;;;;;;;;;;;;24.80;46.92;98394.88;4995801;28;21839;-84
2022/08/11 07:55:20;;;;;;;;;;;;;;;24.96;46.23;98390.31;4994649;28;19926;-85
2022/08/11 08:19:49;;;;;;;;;;;;;;;24.90;45.51;98385.44;4999006;28;19930;-85
2022/08/11 08:22:16;;;;;;;;;;;;;;;25.06;45.47;98386.31;4999573;28;19932;-85
2022/08/11 08:24:43;;;;;;;;;;;;;;;25.20;45.25;98390.25;4996685;28;20405;-84
2022/08/11 08:27:12;;;;;;;;;;;;;;;25.21;45.30;98385.56;4982529;28;20016;-84
2022/08/11 08:32:23;;;;;;;;;;;;;;;25.19;45.11;98394.09;4990963;28;19929;-84
2022/08/11 08:34:51;;;;;;;;;;;;;;;25.14;44.91;98385.34;4996159;28;19929;-84
2022/08/11 08:37:18;;;;;;;;;;;;;;;25.08;45.25;98403.16;5002954;28;19926;-83
2022/08/11 08:39:45;;;;;;;;;;;;;;;25.10;44.98;98379.78;5004090;28;19936;-84
2022/08/11 08:42:13;;;;;;;;;;;;;;;25.27;45.05;98391.59;4995860;28;19957;-85
2022/08/11 08:44:41;;;;;;;;;;;;;;;25.19;44.86;98388.63;4973068;28;19936;-83
2022/08/11 08:47:09;;;;;;;;;;;;;;;25.20;45.05;98392.16;4974188;28;19965;-84
2022/08/11 08:49:38;;;;;;;;;;;;;;;25.38;44.74;98381.75;4996195;28;19930;-83
2022/08/11 08:52:07;;;;;;;;;;;;;;;25.32;44.05;98391.31;4999501;28;20673;-85
2022/08/11 08:54:37;;;;;;;;;;;;;;;25.26;44.14;98385.31;5003741;28;19932;-85
2022/08/11 08:57:04;;;;;;;;;;;;;;;25.25;44.43;98376.31;4999680;28;19931;-85
2022/08/11 08:59:32;;;;;;;;;;;;;;;25.32;44.47;98388.59;4985432;28;19925;-83
2022/08/11 09:02:00;;;;;;;;;;;;;;;25.43;44.77;98370.56;5003728;28;19929;-84
2022/08/11 09:04:27;;;;;;;;;;;;;;;25.55;44.48;98373.25;4998133;28;19984;-84
2022/08/11 09:06:54;;;;;;;;;;;;;;;25.66;44.32;98377.88;5001202;28;19936;-83
2022/08/11 09:09:23;;;;;;;;;;;;;;;25.60;44.15;98378.47;5002724;28;19948;-84
2022/08/11 09:11:55;;;;;;;;;;;;;;;25.49;44.07;98370.00;5000369;28;20020;-83
2022/08/11 09:14:22;;;;;;;;;;;;;;;25.59;44.06;98374.94;4999160;28;20422;-84
2022/08/11 09:16:50;;;;;;;;;;;;;;;25.58;44.12;98373.38;4999227;28;19925;-85
2022/08/11 09:19:17;;;;;;;;;;;;;;;25.68;44.20;98359.19;4996465;28;19932;-83
2022/08/11 09:21:44;;;;;;;;;;;;;;;25.86;44.21;98362.38;4994883;28;19939;-84
2022/08/11 09:27:17;;;;;;;;;;;;;;;25.74;43.41;98365.97;4990877;28;20413;-83
2022/08/11 09:29:44;;;;;;;;;;;;;;;25.75;43.65;98366.75;4998411;28;19939;-83
2022/08/11 09:32:11;;;;;;;;;;;;;;;25.73;43.89;98366.31;4989821;28;19999;-84
2022/08/11 09:34:38;;;;;;;;;;;;;;;25.72;44.08;98361.97;5000448;28;20117;-84
2022/08/11 09:45:28;;;;;;;;;;;;;;;25.80;44.21;98358.31;4993211;28;19929;-85
2022/08/11 09:47:55;;;;;;;;;;;;;;;25.75;44.13;98350.34;5005237;28;19929;-84
2022/08/11 09:50:21;;;;;;;;;;;;;;;25.86;44.05;98351.44;4977922;28;20603;-83
2022/08/11 09:52:49;;;;;;;;;;;;;;;26.03;43.80;98342.06;4998770;28;19936;-83
2022/08/11 09:55:18;;;;;;;;;;;;;;;26.06;42.88;98355.84;4994919;28;20440;-84
2022/08/11 10:00:30;;;;;;;;;;;;;;;26.17;43.20;98335.03;5005513;28;19937;-83
2022/08/11 10:02:57;;;;;;;;;;;;;;;26.11;43.32;98336.41;5003991;28;19980;-83
2022/08/11 10:08:09;;;;;;;;;;;;;;;26.02;43.57;98337.75;4986452;28;19929;-83
2022/08/11 10:10:38;;;;;;;;;;;;;;;26.22;43.26;98329.28;5006324;28;20040;-84
2022/08/11 10:13:06;;;;;;;;;;;;;;;26.36;43.13;98333.50;4997587;28;20007;-82
2022/08/11 10:15:37;;;;;;;;;;;;;;;26.53;43.42;98328.41;4985389;28;20486;-82
2022/08/11 10:20:50;;;;;;;;;;;;;;;26.53;43.01;98309.25;4999455;28;20609;-83
2022/08/11 10:28:47;;;;;;;;;;;;;;;26.44;42.62;98316.06;4997430;28;20274;-84
2022/08/11 10:34:00;;;;;;;;;;;;;;;26.41;42.96;98289.41;4995885;28;20076;-83
2022/08/11 10:36:28;;;;;;;;;;;;;;;26.47;42.94;98290.72;4996910;28;19930;-85
2022/08/11 10:38:55;;;;;;;;;;;;;;;26.83;42.74;98297.78;4988809;28;20558;-84
2022/08/11 10:44:16;;;;;;;;;;;;;;;26.85;42.56;98287.25;4969408;28;19933;-84
2022/08/11 10:49:27;;;;;;;;;;;;;;;27.24;42.39;98272.34;5004000;28;19933;-84
2022/08/11 11:00:13;;;;;;;;;;;;;;;27.23;40.92;98276.28;4997013;28;19936;-81
2022/08/11 11:02:39;;;;;;;;;;;;;;;27.32;40.17;98279.56;5002141;28;19929;-84
2022/08/11 11:05:10;;;;;;;;;;;;;;;27.14;40.51;98267.50;4997397;28;20416;-84
2022/08/11 11:07:38;;;;;;;;;;;;;;;27.27;40.26;98272.44;4994754;28;19936;-85
2022/08/11 11:10:05;;;;;;;;;;;;;;;27.46;39.76;98265.34;4997459;28;19969;-84
2022/08/11 11:18:08;;;;;;;;;;;;;;;27.79;39.17;98251.81;5003757;28;19951;-83
2022/08/11 11:20:38;;;;;;;;;;;;;;;27.58;38.91;98257.72;5009807;28;19933;-83
2022/08/11 11:23:06;;;;;;;;;;;;;;;27.44;39.25;98257.50;5003842;28;19934;-82
2022/08/11 11:25:38;;;;;;;;;;;;;;;27.50;39.19;98258.78;5004125;28;19944;-83
2022/08/11 11:28:33;;;;;;;;;;;;;;;27.48;39.37;98260.31;5002735;28;20341;-84
2022/08/11 11:31:06;;;;;;;;;;;;;;;27.59;39.21;98256.56;5002088;28;19926;-83
2022/08/11 11:33:41;;;;;;;;;;;;;;;27.69;38.89;98245.00;4995341;28;19993;-84
2022/08/11 11:36:12;;;;;;;;;;;;;;;27.75;38.36;98242.72;5000798;28;19955;-83
2022/08/11 11:38:40;;;;;;;;;;;;;;;27.76;38.47;98242.34;5001725;28;20024;-83
2022/08/11 11:41:25;;;;;;;;;;;;;;;27.66;38.83;98245.72;5000830;28;20044;-84
2022/08/11 11:43:54;;;;;;;;;;;;;;;27.71;38.76;98241.88;4999874;28;20523;-84
2022/08/11 11:46:20;;;;;;;;;;;;;;;27.80;38.44;98237.72;4993356;28;19933;-84
2022/08/11 11:48:47;;;;;;;;;;;;;;;27.85;38.60;98231.91;4996185;28;19926;-84
2022/08/11 11:51:14;;;;;;;;;;;;;;;27.95;38.52;98232.44;4994792;28;19936;-84
2022/08/11 11:53:42;;;;;;;;;;;;;;;27.89;38.23;98230.00;5006544;28;20347;-84
2022/08/11 11:56:09;;;;;;;;;;;;;;;28.16;37.86;98230.06;5000816;28;19987;-83
2022/08/11 12:01:23;;;;;;;;;;;;;;;28.08;37.82;98228.34;4997649;28;19957;-83
2022/08/11 12:03:50;;;;;;;;;;;;;;;28.20;37.49;98230.88;4995520;28;19988;-83
2022/08/11 12:06:18;;;;;;;;;;;;;;;28.25;37.14;98228.63;5002949;28;20412;-84
2022/08/11 12:08:47;;;;;;;;;;;;;;;28.25;38.18;98223.13;5007975;28;20384;-84
2022/08/11 12:14:01;;;;;;;;;;;;;;;28.39;37.01;98211.53;5004229;28;19925;-85
2022/08/11 12:16:30;;;;;;;;;;;;;;;28.52;37.06;98221.13;5014600;28;19930;-85
2022/08/11 12:18:57;;;;;;;;;;;;;;;28.23;37.39;98213.66;5008600;28;19940;-84
2022/08/11 12:21:24;;;;;;;;;;;;;;;28.39;37.00;98217.03;5006943;28;20036;-85
2022/08/11 12:29:25;;;;;;;;;;;;;;;28.75;36.45;98208.06;4996212;28;20078;-84
2022/08/11 12:31:54;;;;;;;;;;;;;;;28.66;36.38;98209.53;4995961;28;20008;-85
2022/08/11 12:34:21;;;;;;;;;;;;;;;28.65;36.26;98203.25;4997980;28;19961;-84
2022/08/11 12:36:50;;;;;;;;;;;;;;;28.51;36.34;98199.50;5006125;28;19936;-85
2022/08/11 12:39:19;;;;;;;;;;;;;;;28.63;36.16;98202.00;4999846;28;20424;-84
2022/08/11 12:47:17;;;;;;;;;;;;;;;28.81;35.61;98194.81;5007608;28;19964;-85
2022/08/11 12:52:32;;;;;;;;;;;;;;;28.85;35.76;98193.66;4996255;28;19969;-85
2022/08/11 12:55:00;;;;;;;;;;;;;;;28.90;35.44;98185.09;4999882;28;20549;-85
2022/08/11 13:05:43;;;;;;;;;;;;;;;28.91;35.49;98175.66;5003148;28;19933;-84
2022/08/11 13:08:10;;;;;;;;;;;;;;;28.92;35.87;98169.00;5005364;28;20008;-87
2022/08/11 13:13:21;;;;;;;;;;;;;;;29.05;34.57;98165.97;5005257;28;20037;-85
2022/08/11 13:15:48;;;;;;;;;;;;;;;28.92;35.01;98171.75;5006840;28;19976;-85
2022/08/11 13:18:17;;;;;;;;;;;;;;;28.82;35.52;98169.69;4997077;28;20024;-85
2022/08/11 13:20:44;;;;;;;;;;;;;;;28.85;34.70;98159.88;5007153;28;20385;-84
2022/08/11 13:23:12;;;;;;;;;;;;;;;28.82;34.94;98157.88;5002070;28;19933;-85
2022/08/11 13:25:39;;;;;;;;;;;;;;;28.61;35.18;98160.38;4993464;28;19969;-84
2022/08/11 13:28:06;;;;;;;;;;;;;;;28.62;34.78;98161.97;5000002;28;20037;-85
2022/08/11 13:33:19;;;;;;;;;;;;;;;28.86;35.01;98159.53;4992380;28;20018;-85
2022/08/11 13:35:48;;;;;;;;;;;;;;;28.78;34.55;98162.56;5004221;28;20186;-84
2022/08/11 13:38:16;;;;;;;;;;;;;;;28.90;34.15;98167.81;4986945;28;19930;-85
2022/08/11 13:40:43;;;;;;;;;;;;;;;28.94;34.24;98158.41;5011523;28;20316;-84
2022/08/11 13:43:10;;;;;;;;;;;;;;;28.77;34.51;98144.50;5000998;28;19936;-84
2022/08/11 13:45:36;;;;;;;;;;;;;;;28.88;33.84;98156.38;5006784;28;19929;-85
2022/08/11 13:48:06;;;;;;;;;;;;;;;28.83;34.06;98151.22;4989251;28;19926;-86
2022/08/11 13:53:15;;;;;;;;;;;;;;;28.90;33.79;98154.06;5003849;28;19930;-86
2022/08/11 13:55:43;;;;;;;;;;;;;;;28.90;33.96;98154.84;5001345;28;20382;-86
2022/08/11 13:58:10;;;;;;;;;;;;;;;28.84;33.54;98161.06;5006287;28;20031;-87
2022/08/11 14:00:36;;;;;;;;;;;;;;;28.91;33.20;98156.41;5001101;28;19948;-86
2022/08/11 14:03:05;;;;;;;;;;;;;;;28.74;32.68;98148.00;5003061;28;19926;-88
2022/08/11 14:05:36;;;;;;;;;;;;;;;28.66;33.45;98138.06;5001807;28;19926;-85
2022/08/11 14:08:07;;;;;;;;;;;;;;;28.67;33.48;98140.47;5002741;28;19932;-83
2022/08/11 14:10:34;;;;;;;;;;;;;;;28.83;33.15;98140.25;5005806;28;19956;-86
2022/08/11 14:15:47;;;;;;;;;;;;;;;28.82;33.31;98139.44;5004813;28;19925;-85
2022/08/11 14:18:17;;;;;;;;;;;;;;;28.80;33.27;98136.28;5001770;28;20021;-84
2022/08/11 14:23:32;;;;;;;;;;;;;;;28.73;33.87;98132.66;5006570;28;19929;-84
2022/08/11 14:28:43;;;;;;;;;;;;;;;28.86;33.74;98139.47;5000208;28;19948;-87
2022/08/11 14:31:10;;;;;;;;;;;;;;;28.81;34.29;98135.09;5003764;28;19971;-87
2022/08/11 14:33:37;;;;;;;;;;;;;;;28.82;33.92;98130.41;5002502;28;19936;-88
2022/08/11 14:36:05;;;;;;;;;;;;;;;28.84;34.46;98125.34;5003306;28;19971;-88
2022/08/11 14:38:34;;;;;;;;;;;;;;;28.76;34.40;98134.66;5007392;28;20459;-88
2022/08/11 14:49:14;;;;;;;;;;;;;;;28.81;34.63;98124.09;5001073;28;19933;-87
2022/08/11 14:51:41;;;;;;;;;;;;;;;28.66;34.91;98125.13;5002003;28;20471;-86
2022/08/11 14:56:55;;;;;;;;;;;;;;;28.62;34.95;98127.03;5009234;28;20354;-85
2022/08/11 14:59:23;;;;;;;;;;;;;;;28.59;35.02;98121.50;5009353;28;19926;-86
2022/08/11 15:04:33;;;;;;;;;;;;;;;28.74;35.20;98137.78;5005000;28;19936;-85
2022/08/11 15:07:00;;;;;;;;;;;;;;;28.72;34.98;98126.38;5001598;28;19981;-85
2022/08/11 15:09:28;;;;;;;;;;;;;;;28.65;35.14;98126.31;5007813;28;19952;-86
2022/08/11 15:12:15;;;;;;;;;;;;;;;28.59;35.34;98127.78;5006908;28;19929;-86
2022/08/11 15:17:26;;;;;;;;;;;;;;;28.50;35.10;98119.06;5002511;28;19925;-87
2022/08/11 15:25:22;;;;;;;;;;;;;;;28.60;34.87;98112.06;4996761;28;20401;-84
2022/08/11 15:38:53;;;;;;;;;;;;;;;28.30;35.43;98115.69;5008030;28;19979;-84
2022/08/11 15:46:57;;;;;;;;;;;;;;;28.42;34.86;98111.88;5005568;28;19932;-85
2022/08/11 15:49:29;;;;;;;;;;;;;;;28.37;34.70;98120.47;5018780;28;19926;-86
2022/08/11 15:51:57;;;;;;;;;;;;;;;28.44;34.52;98120.56;5008333;28;19941;-85
2022/08/11 15:54:27;;;;;;;;;;;;;;;28.37;35.00;98113.03;5005672;28;20597;-86
2022/08/11 15:56:56;;;;;;;;;;;;;;;28.44;34.74;98115.06;5004160;28;19945;-86
2022/08/11 16:04:56;;;;;;;;;;;;;;;28.26;34.49;98103.06;5000932;28;19936;-87
2022/08/11 16:07:25;;;;;;;;;;;;;;;28.32;34.31;98107.03;5005564;28;19929;-87
2022/08/11 16:09:53;;;;;;;;;;;;;;;28.21;34.47;98100.66;5013489;28;19925;-88
2022/08/11 16:12:23;;;;;;;;;;;;;;;28.28;33.99;98103.47;4992186;28;20013;-85
2022/08/11 16:17:38;;;;;;;;;;;;;;;28.39;33.02;98096.16;5011998;28;19925;-84
2022/08/11 16:20:05;;;;;;;;;;;;;;;28.37;33.24;98098.50;4999986;28;20041;-85
2022/08/11 16:22:40;;;;;;;;;;;;;;;28.40;33.78;98087.53;5006187;28;20008;-86
2022/08/11 16:25:07;;;;;;;;;;;;;;;28.23;33.97;98082.63;4996848;28;19965;-85
2022/08/11 16:27:37;;;;;;;;;;;;;;;28.15;34.52;98086.47;4999106;28;19929;-86
2022/08/11 16:30:04;;;;;;;;;;;;;;;28.19;34.15;98087.31;4997820;28;19955;-85
2022/08/11 16:32:31;;;;;;;;;;;;;;;28.30;34.12;98082.72;5001617;28;19941;-85
2022/08/11 16:40:30;;;;;;;;;;;;;;;28.27;34.69;98077.97;4995929;28;20013;-84
2022/08/11 16:48:28;;;;;;;;;;;;;;;28.21;35.14;98078.69;4999513;28;19925;-86
2022/08/11 16:50:55;;;;;;;;;;;;;;;28.22;35.76;98077.53;5005770;28;19925;-85
2022/08/11 16:53:22;;;;;;;;;;;;;;;28.11;36.10;98079.34;4995278;28;19930;-86
2022/08/11 16:55:48;;;;;;;;;;;;;;;27.89;36.47;98091.97;5005068;28;20012;-85
2022/08/11 17:01:01;;;;;;;;;;;;;;;27.96;36.45;98081.09;4999404;28;19926;-85
2022/08/11 17:14:35;;;;;;;;;;;;;;;27.76;36.97;98096.13;4989586;28;20404;-85
2022/08/11 17:17:02;;;;;;;;;;;;;;;27.69;37.47;98090.53;5002447;28;19936;-85
2022/08/11 17:19:31;;;;;;;;;;;;;;;27.72;37.63;98095.28;5005331;28;19929;-84
2022/08/11 17:24:44;;;;;;;;;;;;;;;27.50;38.31;98082.41;4999212;28;20677;-84
2022/08/11 17:27:12;;;;;;;;;;;;;;;27.67;38.15;98090.88;5000343;28;19929;-84
2022/08/11 17:29:42;;;;;;;;;;;;;;;27.60;38.24;98104.53;5004976;28;20033;-85
2022/08/11 17:37:43;;;;;;;;;;;;;;;27.24;38.42;98097.66;4997374;28;19933;-84
2022/08/11 17:40:11;;;;;;;;;;;;;;;27.23;38.36;98084.31;5004699;28;19964;-83
2022/08/11 17:48:27;;;;;;;;;;;;;;;27.25;38.31;98082.00;5006056;28;19933;-85
2022/08/11 17:50:57;;;;;;;;;;;;;;;27.33;37.89;98092.69;4989776;28;19976;-86
2022/08/11 18:01:54;;;;;;;;;;;;;;;27.14;38.20;98105.72;4958528;28;20369;-84
2022/08/11 18:04:21;;;;;;;;;;;;;;;27.10;38.25;98102.13;4975218;28;19991;-85
2022/08/11 18:06:48;;;;;;;;;;;;;;;27.06;37.98;98110.28;5005944;28;19936;-82
